Midway, Alabama
Current Conditions -  °F | °C
As of 2:05 AM on Tuesday 21 Oct 2014 (Local Time) from KEUF Reporting Station
Haze Haze  
Wind Chill: 52°   Ceiling: Unl
Heat Index: 52°   Visibility: 2.5mi
Dew Point: 48°   Wind: 0mph
Humidity: 88%   Direction: NA
Pressure: 30"   Gusts: NA
Location:  32.08°N, 85.52°W
Report Text: KEUF 210705Z AUTO 00000KT 2 1/2SM BR CLR 11/09 A3000 RMK AO2 $
Loading
Personal Weather Stations






























Interactive Weather Map
Tropical Storm Tracking
New forecast layout! Learn more

10-Day Weather Forecast

Advertisements
Track Severe Weather on mobile